Terminal Aerodrome Forecast
Issued by NWS

Home | Current Version | Previous Version | Graphics & Text | Print | Product List | Glossary On
Versions: 1 2 3 4 5 6 7 8 9 10 11 12 13 14 15 16 17 18 19 20 21 22 23 24 25
480
FTUS43 KLSX 290546 AAA
TAFSUS
TAF AMD
KSUS 290546Z 2906/3006 03004KT 5SM BR OVC006
      TEMPO 2906/2910 2SM TSRA BR OVC004CB
     FM291400 08009KT 6SM BR OVC008
      TEMPO 2914/2916 3SM TSRA BR OVC005CB
     FM291800 15010KT P6SM BKN020
     FM292300 18011G17KT 4SM SHRA VCTS OVC035CB=

USA.gov is the U.S. government's official web portal to all federal, state and local government web resources and services.